Time;durP1;ratioP1;P1;durP2;ratioP2;P2;SDS_P1;SDS_P2;PMS_P1;PMS_P2;Temp;Humidity;BMP_temperature;BMP_pressure;BME280_temperature;BME280_humidity;BME280_pressure;Samples;Min_cycle;Max_cycle;Signal;HPM_P1;HPM_P2
2023/09/04 00:01:08;;;;;;;2.28;1.25;;;15.90;99.90;;;;;;4995739;28;20041;-71
2023/09/04 00:03:34;;;;;;;1.67;1.10;;;15.80;99.90;;;;;;4996844;28;20065;-74
2023/09/04 00:06:00;;;;;;;2.75;1.38;;;15.80;99.90;;;;;;4996849;28;20422;-72
2023/09/04 00:08:26;;;;;;;2.80;1.15;;;15.70;99.90;;;;;;4996708;28;20062;-71
2023/09/04 00:10:52;;;;;;;2.75;1.20;;;15.70;99.90;;;;;;4998214;28;20115;-72
2023/09/04 00:13:17;;;;;;;2.75;1.58;;;15.70;99.90;;;;;;4997508;28;20045;-72
2023/09/04 00:15:44;;;;;;;2.80;1.40;;;15.70;99.90;;;;;;4998302;28;20037;-71
2023/09/04 00:18:09;;;;;;;2.08;0.90;;;15.60;99.90;;;;;;4995031;28;20038;-72
2023/09/04 00:20:36;;;;;;;3.22;1.13;;;15.60;99.90;;;;;;4998749;28;20030;-73
2023/09/04 00:23:01;;;;;;;2.03;0.90;;;15.60;99.90;;;;;;4996565;28;20474;-71
2023/09/04 00:25:28;;;;;;;2.78;1.15;;;15.60;99.90;;;;;;4998253;28;20048;-71
2023/09/04 00:27:55;;;;;;;2.15;1.00;;;15.60;99.90;;;;;;4996088;28;20030;-72
2023/09/04 00:30:20;;;;;;;3.13;1.23;;;15.60;99.90;;;;;;5001407;28;20176;-74
2023/09/04 00:32:46;;;;;;;2.55;0.80;;;15.60;99.90;;;;;;4997924;28;20405;-72
2023/09/04 00:35:13;;;;;;;3.22;1.02;;;15.50;99.90;;;;;;4996919;28;20441;-71
2023/09/04 00:37:40;;;;;;;1.23;0.90;;;15.50;99.90;;;;;;4998421;28;20044;-72
2023/09/04 00:40:06;;;;;;;3.47;0.88;;;15.50;99.90;;;;;;5000192;28;20092;-72
2023/09/04 00:42:33;;;;;;;1.88;1.05;;;15.50;99.90;;;;;;4998587;28;20065;-72
2023/09/04 00:45:00;;;;;;;3.75;1.33;;;15.50;99.90;;;;;;4995440;28;20118;-73
2023/09/04 00:47:27;;;;;;;1.60;0.88;;;15.50;99.90;;;;;;4997469;28;20022;-71
2023/09/04 00:49:54;;;;;;;3.00;1.00;;;15.50;99.90;;;;;;4997384;28;20393;-72
2023/09/04 00:52:22;;;;;;;1.65;0.93;;;15.60;99.90;;;;;;5001203;28;20042;-71
2023/09/04 00:54:48;;;;;;;1.60;0.80;;;15.50;99.90;;;;;;5005673;28;20124;-71
2023/09/04 00:57:15;;;;;;;1.23;0.73;;;15.50;99.90;;;;;;5001101;28;20037;-72
2023/09/04 00:59:41;;;;;;;1.25;0.98;;;15.50;99.90;;;;;;5004318;28;20917;-73
2023/09/04 01:02:07;;;;;;;1.77;0.82;;;15.50;99.90;;;;;;5003136;28;20084;-72
2023/09/04 01:04:33;;;;;;;1.60;0.60;;;15.40;99.90;;;;;;4999170;28;20044;-71
2023/09/04 01:06:59;;;;;;;2.88;0.75;;;15.40;99.90;;;;;;5003188;28;20045;-71
2023/09/04 01:09:26;;;;;;;3.50;0.73;;;15.30;99.90;;;;;;4999829;28;20407;-72
2023/09/04 01:12:11;;;;;;;2.33;1.05;;;15.30;99.90;;;;;;4998187;28;20031;-72
2023/09/04 01:14:39;;;;;;;1.15;0.70;;;15.30;99.90;;;;;;4998888;28;20033;-71
2023/09/04 01:17:06;;;;;;;1.45;0.82;;;15.30;99.90;;;;;;5002712;28;20070;-72
2023/09/04 01:19:32;;;;;;;2.08;0.82;;;15.30;99.90;;;;;;5002194;28;20034;-72
2023/09/04 01:21:58;;;;;;;1.48;0.77;;;15.30;99.90;;;;;;4998685;28;20037;-73
2023/09/04 01:24:23;;;;;;;2.38;1.08;;;15.20;99.90;;;;;;4994886;28;20065;-71
2023/09/04 01:27:04;;;;;;;2.40;0.85;;;15.20;99.90;;;;;;4996899;28;20117;-71
2023/09/04 01:29:38;;;;;;;1.75;1.13;;;15.20;99.90;;;;;;4994803;28;20042;-72
2023/09/04 01:32:10;;;;;;;1.42;0.80;;;15.20;99.90;;;;;;4999662;28;20084;-72
2023/09/04 01:34:46;;;;;;;1.30;0.80;;;15.20;99.90;;;;;;4998792;28;20514;-71
2023/09/04 01:37:13;;;;;;;1.63;0.85;;;15.10;99.90;;;;;;4998100;28;20561;-72
2023/09/04 01:39:40;;;;;;;1.98;1.10;;;15.10;99.90;;;;;;4999084;28;20038;-71
2023/09/04 01:42:06;;;;;;;2.15;1.00;;;15.00;99.90;;;;;;5001683;28;20088;-71
2023/09/04 01:44:32;;;;;;;3.55;1.40;;;14.90;99.90;;;;;;4997966;28;20042;-73
2023/09/04 01:46:58;;;;;;;1.42;0.88;;;14.90;99.90;;;;;;4999014;28;20026;-71
2023/09/04 01:49:24;;;;;;;1.30;0.85;;;14.80;99.90;;;;;;5000366;28;20026;-73
2023/09/04 01:51:51;;;;;;;2.85;1.25;;;14.80;99.90;;;;;;5001348;28;20269;-72
2023/09/04 01:54:17;;;;;;;1.75;0.80;;;14.70;99.90;;;;;;5001795;28;20045;-72
2023/09/04 01:56:42;;;;;;;3.00;1.30;;;14.70;99.90;;;;;;4999155;28;20748;-73
2023/09/04 01:59:08;;;;;;;3.13;1.10;;;14.60;99.90;;;;;;5003821;28;20045;-72
2023/09/04 02:01:35;;;;;;;2.53;1.17;;;14.60;99.90;;;;;;4995035;28;20137;-71
2023/09/04 02:04:00;;;;;;;2.42;1.40;;;14.50;99.90;;;;;;4998577;28;20508;-72
2023/09/04 02:06:31;;;;;;;4.97;1.02;;;14.50;99.90;;;;;;4999264;28;20050;-71
2023/09/04 02:08:57;;;;;;;;;;;14.50;99.90;;;;;;4999573;28;20038;-72
2023/09/04 02:11:23;;;;;;;1.30;1.00;;;14.50;99.90;;;;;;4998495;28;19921;-72
2023/09/04 02:13:49;;;;;;;1.40;0.70;;;14.50;99.90;;;;;;5000440;28;20080;-71
2023/09/04 02:16:15;;;;;;;1.55;0.90;;;14.50;99.90;;;;;;5000291;28;20045;-72
2023/09/04 02:18:41;;;;;;;3.92;1.50;;;14.50;99.90;;;;;;4996254;28;20041;-71
2023/09/04 02:21:07;;;;;;;1.67;1.08;;;14.40;99.90;;;;;;4999976;28;20041;-70
2023/09/04 02:23:33;;;;;;;1.75;0.93;;;14.30;99.90;;;;;;4997413;28;20462;-72
2023/09/04 02:25:58;;;;;;;2.30;1.13;;;14.30;99.90;;;;;;5001089;28;20145;-72
2023/09/04 02:28:24;;;;;;;3.67;1.20;;;14.30;99.90;;;;;;5009659;28;20042;-71
2023/09/04 02:30:50;;;;;;;2.15;1.42;;;14.30;99.90;;;;;;4999650;28;20157;-72
2023/09/04 02:33:16;;;;;;;3.17;1.23;;;14.40;99.90;;;;;;4998014;28;20034;-73
2023/09/04 02:35:42;;;;;;;2.78;1.63;;;14.40;99.90;;;;;;5002768;28;20579;-72
2023/09/04 02:38:07;;;;;;;2.40;1.35;;;14.40;99.90;;;;;;4999217;28;20444;-72
2023/09/04 02:40:33;;;;;;;2.28;1.50;;;14.50;99.90;;;;;;4995954;28;20042;-71
2023/09/04 02:42:59;;;;;;;3.83;1.45;;;14.60;99.90;;;;;;5003202;28;20528;-73
2023/09/04 02:45:25;;;;;;;5.07;1.85;;;14.60;99.90;;;;;;4997417;28;20026;-75
2023/09/04 02:47:50;;;;;;;6.40;1.42;;;14.70;99.90;;;;;;5000648;28;20497;-71
2023/09/04 02:50:16;;;;;;;3.92;2.00;;;14.70;99.90;;;;;;4999932;28;20041;-71
2023/09/04 02:52:42;;;;;;;3.97;1.73;;;14.70;99.90;;;;;;4993111;28;20432;-71
2023/09/04 02:55:08;;;;;;;4.63;1.77;;;14.70;99.90;;;;;;4997862;28;20492;-72
2023/09/04 02:57:34;;;;;;;3.00;1.67;;;14.70;99.90;;;;;;4999082;28;20031;-72
2023/09/04 03:00:00;;;;;;;4.18;2.00;;;14.70;99.90;;;;;;5002131;28;20033;-72
2023/09/04 03:02:26;;;;;;;4.45;1.60;;;14.70;99.90;;;;;;4998146;28;20034;-71
2023/09/04 03:04:53;;;;;;;2.15;1.30;;;14.60;99.90;;;;;;5099774;22;20041;-70
2023/09/04 03:07:19;;;;;;;3.25;1.65;;;14.60;99.90;;;;;;5029643;28;20025;-72
2023/09/04 03:09:44;;;;;;;2.72;1.70;;;14.50;99.90;;;;;;5034856;28;23136;-70
2023/09/04 03:12:10;;;;;;;7.15;2.25;;;14.40;99.90;;;;;;5034775;28;20030;-71
2023/09/04 03:14:35;;;;;;;3.95;1.92;;;14.40;99.90;;;;;;5036340;28;20037;-70
2023/09/04 03:17:04;;;;;;;2.55;1.48;;;14.40;99.90;;;;;;5037970;28;20143;-70
2023/09/04 03:19:30;;;;;;;3.13;1.67;;;14.40;99.90;;;;;;5029442;28;20096;-71
2023/09/04 03:21:55;;;;;;;2.20;1.30;;;14.30;99.90;;;;;;5032519;28;20044;-71
2023/09/04 03:24:23;;;;;;;3.17;1.88;;;14.30;99.90;;;;;;5040705;28;20459;-70
2023/09/04 03:26:49;;;;;;;2.05;1.48;;;14.20;99.90;;;;;;5034408;28;20408;-70
2023/09/04 03:29:15;;;;;;;2.80;1.65;;;14.10;99.90;;;;;;5036251;28;20056;-72
2023/09/04 03:31:41;;;;;;;2.95;1.58;;;14.10;99.90;;;;;;5033635;28;20029;-70
2023/09/04 03:34:07;;;;;;;2.63;1.58;;;14.10;99.90;;;;;;5034435;28;20121;-71
2023/09/04 03:36:32;;;;;;;2.63;1.58;;;14.00;99.90;;;;;;5032203;28;20400;-71
2023/09/04 03:38:58;;;;;;;5.25;2.17;;;14.00;99.90;;;;;;5039758;28;20040;-71
2023/09/04 03:41:24;;;;;;;3.28;1.27;;;13.90;99.90;;;;;;5033873;28;20052;-72
2023/09/04 03:43:50;;;;;;;2.42;1.60;;;13.90;99.90;;;;;;5032320;28;20556;-70
2023/09/04 03:46:16;;;;;;;4.20;1.40;;;13.80;99.90;;;;;;5030696;28;20124;-71
2023/09/04 03:48:41;;;;;;;3.67;1.73;;;13.80;99.90;;;;;;5028123;28;20029;-70
2023/09/04 03:51:07;;;;;;;5.28;2.00;;;13.80;99.90;;;;;;5036307;28;20794;-71
2023/09/04 03:53:33;;;;;;;3.50;1.80;;;13.80;99.90;;;;;;5031750;28;20037;-70
2023/09/04 03:56:05;;;;;;;4.20;1.95;;;13.80;99.90;;;;;;5042029;28;20128;-71
2023/09/04 03:58:31;;;;;;;3.45;1.90;;;13.80;99.90;;;;;;5037950;28;20107;-70
2023/09/04 04:00:57;;;;;;;9.23;2.65;;;13.80;99.90;;;;;;5034212;28;20033;-71
2023/09/04 04:03:23;;;;;;;4.85;2.25;;;13.80;99.90;;;;;;5030848;28;20120;-71
2023/09/04 04:05:49;;;;;;;2.97;1.75;;;13.70;99.90;;;;;;5030164;28;20853;-71
2023/09/04 04:08:15;;;;;;;3.10;1.65;;;13.70;99.90;;;;;;5034729;28;20038;-70
2023/09/04 04:10:40;;;;;;;3.53;1.45;;;13.60;99.90;;;;;;5033603;28;20033;-70
2023/09/04 04:13:06;;;;;;;7.10;2.33;;;13.60;99.90;;;;;;5033945;28;20041;-71
2023/09/04 04:15:31;;;;;;;3.50;1.58;;;13.60;99.90;;;;;;5028860;28;20049;-72
2023/09/04 04:17:57;;;;;;;4.22;2.42;;;13.60;99.90;;;;;;5034493;28;20052;-70
2023/09/04 04:20:23;;;;;;;5.32;2.10;;;13.60;99.90;;;;;;5031046;28;20038;-71
2023/09/04 04:22:48;;;;;;;3.33;1.70;;;13.50;99.90;;;;;;5032804;28;20033;-72
2023/09/04 04:25:14;;;;;;;4.53;2.05;;;13.50;99.90;;;;;;5037202;28;20416;-70
2023/09/04 04:27:41;;;;;;;3.80;2.05;;;13.50;99.90;;;;;;5028109;28;20485;-71
2023/09/04 04:30:11;;;;;;;3.72;2.08;;;13.50;99.90;;;;;;5026894;28;20034;-72
2023/09/04 04:32:37;;;;;;;6.07;2.47;;;13.50;99.90;;;;;;5032498;28;20092;-72
2023/09/04 04:35:03;;;;;;;4.68;2.30;;;13.50;99.90;;;;;;5034339;28;20038;-71
2023/09/04 04:37:29;;;;;;;6.93;2.72;;;13.50;99.90;;;;;;5037179;28;20045;-71
2023/09/04 04:39:54;;;;;;;5.75;2.65;;;13.50;99.90;;;;;;5037256;28;20039;-71
2023/09/04 04:42:23;;;;;;;4.75;1.98;;;13.60;99.90;;;;;;5035412;28;20026;-71
2023/09/04 04:44:48;;;;;;;5.65;2.70;;;13.60;99.90;;;;;;5029622;28;20076;-71
2023/09/04 04:47:14;;;;;;;7.28;3.05;;;13.70;99.90;;;;;;5036163;28;20530;-71
2023/09/04 04:49:40;;;;;;;6.95;2.80;;;13.70;99.90;;;;;;5033734;28;20034;-71
2023/09/04 04:52:05;;;;;;;5.15;2.83;;;13.80;99.90;;;;;;5035425;28;20457;-74
2023/09/04 04:54:31;;;;;;;4.63;2.67;;;13.80;99.90;;;;;;5033318;28;20029;-72
2023/09/04 04:56:57;;;;;;;4.93;2.55;;;13.90;99.90;;;;;;5037817;28;20044;-71
2023/09/04 04:59:22;;;;;;;4.32;2.33;;;13.90;99.90;;;;;;5036736;28;20034;-70
2023/09/04 05:01:48;;;;;;;8.85;2.90;;;13.90;99.90;;;;;;5031422;28;20037;-70
2023/09/04 05:04:13;;;;;;;5.13;2.72;;;13.90;99.90;;;;;;5028060;28;20029;-70
2023/09/04 05:06:39;;;;;;;4.80;2.70;;;14.00;99.90;;;;;;5025481;28;20042;-71
2023/09/04 05:09:05;;;;;;;4.90;2.58;;;14.00;99.90;;;;;;5026298;28;20439;-70
2023/09/04 05:11:31;;;;;;;5.65;2.50;;;14.00;99.90;;;;;;5024423;28;20033;-71
2023/09/04 05:13:57;;;;;;;4.05;2.65;;;14.10;99.90;;;;;;5024908;28;20044;-70
2023/09/04 05:16:22;;;;;;;6.15;2.22;;;14.10;99.90;;;;;;5025024;28;20057;-75
2023/09/04 05:18:48;;;;;;;4.43;2.35;;;14.10;99.90;;;;;;5027977;28;20037;-70
2023/09/04 05:21:14;;;;;;;6.95;2.85;;;14.00;99.90;;;;;;5024336;28;20067;-71
2023/09/04 05:23:39;;;;;;;6.60;2.75;;;14.00;99.90;;;;;;5023582;28;20030;-71
2023/09/04 05:26:05;;;;;;;5.10;2.45;;;14.00;99.90;;;;;;5028263;28;20154;-71
2023/09/04 05:28:31;;;;;;;4.40;2.58;;;13.90;99.90;;;;;;5026418;28;20544;-72
2023/09/04 05:31:05;;;;;;;4.90;2.42;;;13.90;99.90;;;;;;5022948;28;20112;-70
2023/09/04 05:33:31;;;;;;;3.85;2.47;;;13.80;99.90;;;;;;5021840;28;20025;-71
2023/09/04 05:35:57;;;;;;;4.80;2.95;;;13.90;99.90;;;;;;5027586;28;20047;-70
2023/09/04 05:38:23;;;;;;;4.95;2.50;;;13.90;99.90;;;;;;5029405;28;20060;-73
2023/09/04 05:40:53;;;;;;;4.70;2.75;;;13.90;99.90;;;;;;5029389;28;20056;-72
2023/09/04 05:43:18;;;;;;;7.53;3.33;;;14.00;99.90;;;;;;5025783;28;20037;-71
2023/09/04 05:45:44;;;;;;;4.85;2.60;;;14.00;99.90;;;;;;5028525;28;20045;-70
2023/09/04 05:48:09;;;;;;;5.53;3.25;;;14.10;99.90;;;;;;5029270;28;20033;-71
2023/09/04 05:50:35;;;;;;;5.85;3.33;;;14.30;99.90;;;;;;5026464;28;20041;-71
2023/09/04 05:53:00;;;;;;;8.57;2.85;;;14.40;99.90;;;;;;5033103;28;20038;-71
2023/09/04 05:55:26;;;;;;;6.55;3.03;;;14.50;99.90;;;;;;5026658;28;20056;-71
2023/09/04 05:57:51;;;;;;;5.43;2.95;;;14.60;99.90;;;;;;5026982;28;20117;-71
2023/09/04 06:00:17;;;;;;;7.60;2.92;;;14.70;99.90;;;;;;5028835;28;20048;-70
2023/09/04 06:02:43;;;;;;;5.82;3.03;;;14.80;99.90;;;;;;5024824;28;20037;-71
2023/09/04 06:05:08;;;;;;;5.65;2.90;;;14.90;99.90;;;;;;5025312;28;20044;-70
2023/09/04 06:07:34;;;;;;;5.63;2.95;;;14.90;99.90;;;;;;5026423;28;20025;-70
2023/09/04 06:10:00;;;;;;;5.25;3.15;;;15.00;99.90;;;;;;5028967;28;20409;-72
2023/09/04 06:12:26;;;;;;;7.07;3.10;;;15.10;99.90;;;;;;5026952;28;20032;-73
2023/09/04 06:14:51;;;;;;;6.65;3.38;;;15.20;99.90;;;;;;5027376;28;20052;-70
2023/09/04 06:17:17;;;;;;;6.55;2.88;;;15.30;99.90;;;;;;5027525;28;20037;-71
2023/09/04 06:19:43;;;;;;;6.93;3.63;;;15.50;99.90;;;;;;5023987;28;20100;-72
2023/09/04 06:22:08;;;;;;;7.30;2.92;;;15.60;99.90;;;;;;5029883;28;20449;-71
2023/09/04 06:24:34;;;;;;;6.15;3.40;;;15.70;99.90;;;;;;5027804;28;20037;-71
2023/09/04 06:27:00;;;;;;;7.40;2.90;;;15.90;99.90;;;;;;5026516;28;20091;-71
2023/09/04 06:29:25;;;;;;;5.80;3.17;;;16.00;99.90;;;;;;5028481;28;20107;-72
2023/09/04 06:31:51;;;;;;;4.95;3.03;;;16.20;99.90;;;;;;5027831;28;20034;-71
2023/09/04 06:34:17;;;;;;;5.45;3.13;;;16.40;99.90;;;;;;5025834;28;20045;-71
2023/09/04 06:36:42;;;;;;;6.78;2.92;;;16.70;99.90;;;;;;5025665;28;20056;-70
2023/09/04 06:39:08;;;;;;;6.40;3.35;;;16.80;99.90;;;;;;5028632;28;20045;-71
2023/09/04 06:41:33;;;;;;;6.00;3.28;;;16.90;99.90;;;;;;5025528;28;20037;-71
2023/09/04 06:43:59;;;;;;;8.65;3.35;;;16.90;99.90;;;;;;5027789;28;20037;-71
2023/09/04 06:46:25;;;;;;;7.63;3.22;;;17.00;99.90;;;;;;5026199;28;20497;-72
2023/09/04 06:48:51;;;;;;;7.22;3.40;;;17.20;99.90;;;;;;5024068;28;20064;-71
2023/09/04 06:51:16;;;;;;;7.68;3.20;;;17.30;99.90;;;;;;5027588;28;20052;-70
2023/09/04 06:53:42;;;;;;;6.40;3.03;;;17.40;99.90;;;;;;5025893;28;20575;-71
2023/09/04 06:56:08;;;;;;;9.93;3.42;;;17.50;99.90;;;;;;5028353;28;20033;-70
2023/09/04 06:58:34;;;;;;;10.88;4.00;;;17.50;99.90;;;;;;5031072;28;20040;-72
2023/09/04 07:01:04;;;;;;;8.27;3.40;;;17.50;99.90;;;;;;5026832;28;20037;-71
2023/09/04 07:03:29;;;;;;;4.72;3.08;;;17.50;99.90;;;;;;5026463;28;20036;-73
2023/09/04 07:05:55;;;;;;;5.50;2.90;;;17.60;99.90;;;;;;5027509;28;20041;-70
2023/09/04 07:08:21;;;;;;;10.63;3.08;;;17.50;99.90;;;;;;5026235;28;20069;-71
2023/09/04 07:10:48;;;;;;;8.82;3.08;;;17.60;99.90;;;;;;5029241;28;20552;-71
2023/09/04 07:13:14;;;;;;;6.35;3.88;;;17.60;99.90;;;;;;5025921;28;20037;-71
2023/09/04 07:15:40;;;;;;;9.30;3.17;;;17.70;99.90;;;;;;5024747;28;20025;-72
2023/09/04 07:18:06;;;;;;;4.97;2.75;;;17.70;99.90;;;;;;5027795;28;20587;-70
2023/09/04 07:20:32;;;;;;;7.57;3.10;;;17.70;99.90;;;;;;5029540;28;20029;-73
2023/09/04 07:22:57;;;;;;;8.45;3.63;;;17.80;99.90;;;;;;5025758;28;20026;-71
2023/09/04 07:25:23;;;;;;;6.22;2.67;;;17.90;99.90;;;;;;5027185;28;20579;-75
2023/09/04 07:27:48;;;;;;;4.38;2.40;;;17.90;99.90;;;;;;5025581;28;20041;-71
2023/09/04 07:30:14;;;;;;;6.55;3.00;;;18.10;99.90;;;;;;5028253;28;20030;-71
2023/09/04 07:32:40;;;;;;;4.43;2.85;;;18.20;99.90;;;;;;5025267;28;20120;-71
2023/09/04 07:35:06;;;;;;;6.82;2.83;;;18.20;99.90;;;;;;5025678;28;20455;-70
2023/09/04 07:37:31;;;;;;;5.60;2.90;;;18.30;99.90;;;;;;5027499;28;20083;-71
2023/09/04 07:39:57;;;;;;;14.43;3.22;;;18.40;99.90;;;;;;5028297;28;20037;-71
2023/09/04 07:42:23;;;;;;;5.95;3.25;;;18.40;99.90;;;;;;5028266;28;20040;-71
2023/09/04 07:44:49;;;;;;;6.28;2.72;;;18.40;99.90;;;;;;5024749;28;20025;-71
2023/09/04 07:47:15;;;;;;;6.93;2.95;;;18.40;99.90;;;;;;5026860;28;20029;-71
2023/09/04 07:49:41;;;;;;;6.45;3.00;;;18.40;99.90;;;;;;5026241;28;20044;-71
2023/09/04 07:52:06;;;;;;;11.13;3.38;;;18.50;99.90;;;;;;5029926;28;20116;-71
2023/09/04 07:54:32;;;;;;;5.03;2.85;;;18.50;99.90;;;;;;5025114;28;20034;-71
2023/09/04 07:57:00;;;;;;;6.68;3.65;;;18.50;99.90;;;;;;5024344;28;20044;-71
2023/09/04 07:59:25;;;;;;;6.03;2.45;;;18.60;99.90;;;;;;5025069;28;20493;-71
2023/09/04 08:01:51;;;;;;;6.55;3.30;;;18.70;99.90;;;;;;5023891;28;20033;-70
2023/09/04 08:04:16;;;;;;;8.02;2.85;;;18.80;99.90;;;;;;5023214;28;20404;-71
2023/09/04 08:06:42;;;;;;;5.00;2.25;;;18.80;99.90;;;;;;5030222;28;20057;-71
2023/09/04 08:09:08;;;;;;;5.07;3.08;;;18.80;99.90;;;;;;5025949;28;20056;-70
2023/09/04 08:11:35;;;;;;;8.38;2.65;;;18.90;99.90;;;;;;5023813;28;20504;-71
2023/09/04 08:14:01;;;;;;;4.88;2.78;;;19.00;99.90;;;;;;5025268;28;20033;-71
2023/09/04 08:16:26;;;;;;;6.45;2.70;;;19.10;99.90;;;;;;5026423;28;20504;-75
2023/09/04 08:18:52;;;;;;;5.90;3.03;;;19.20;99.90;;;;;;5027445;28;20037;-71
2023/09/04 08:21:18;;;;;;;6.22;2.92;;;19.40;99.90;;;;;;5025678;28;20088;-71
2023/09/04 08:23:43;;;;;;;5.60;3.17;;;19.50;99.90;;;;;;5027489;28;20045;-71
2023/09/04 08:26:12;;;;;;;7.75;3.08;;;19.60;99.90;;;;;;5024509;28;20026;-71
2023/09/04 08:28:38;;;;;;;9.65;3.03;;;19.70;99.90;;;;;;5023712;28;20036;-71
2023/09/04 08:31:04;;;;;;;4.95;2.85;;;19.80;99.90;;;;;;5028156;28;20650;-71
2023/09/04 08:33:30;;;;;;;6.90;2.88;;;19.80;99.90;;;;;;5022854;28;20073;-71
2023/09/04 08:35:56;;;;;;;6.82;3.65;;;19.90;99.90;;;;;;5025626;28;20045;-71
2023/09/04 08:38:21;;;;;;;8.27;3.70;;;19.90;99.90;;;;;;5028984;28;20040;-71
2023/09/04 08:40:47;;;;;;;5.53;2.80;;;20.00;99.90;;;;;;5029314;28;21701;-70
2023/09/04 08:43:16;;;;;;;6.63;3.28;;;20.10;99.90;;;;;;5026832;28;20037;-71
2023/09/04 08:45:42;;;;;;;6.43;2.78;;;20.20;99.90;;;;;;5022363;28;20793;-71
2023/09/04 08:48:09;;;;;;;4.88;2.35;;;20.20;99.90;;;;;;5024478;28;20030;-71
2023/09/04 08:50:36;;;;;;;4.28;2.50;;;20.30;99.90;;;;;;5023287;28;20060;-71
2023/09/04 08:53:03;;;;;;;5.32;2.78;;;20.30;99.90;;;;;;5025190;28;20025;-71
2023/09/04 08:55:29;;;;;;;6.18;1.98;;;20.40;99.90;;;;;;5026190;28;20117;-73
2023/09/04 08:57:55;;;;;;;6.05;2.65;;;20.50;99.90;;;;;;5025284;28;20091;-71
2023/09/04 09:00:21;;;;;;;4.90;2.80;;;20.70;99.90;;;;;;5026552;28;20409;-71
2023/09/04 09:02:47;;;;;;;6.88;2.88;;;20.80;99.90;;;;;;5029892;28;20513;-71
2023/09/04 09:05:16;;;;;;;9.27;2.67;;;20.80;99.90;;;;;;5029911;28;20036;-72
2023/09/04 09:07:43;;;;;;;4.20;2.10;;;21.00;99.90;;;;;;5024537;28;20034;-72
2023/09/04 09:10:13;;;;;;;4.03;2.05;;;21.10;99.90;;;;;;5027691;28;20066;-71
2023/09/04 09:12:38;;;;;;;5.43;2.30;;;21.20;99.90;;;;;;5031842;28;20051;-71
2023/09/04 09:15:04;;;;;;;6.15;2.50;;;21.30;99.90;;;;;;5030705;28;20397;-72
2023/09/04 09:17:30;;;;;;;5.32;2.20;;;21.40;99.90;;;;;;5027845;28;20025;-71
2023/09/04 09:19:56;;;;;;;3.65;2.33;;;21.40;99.90;;;;;;5029677;28;20116;-72
2023/09/04 09:22:23;;;;;;;4.03;1.88;;;21.40;99.90;;;;;;5027033;28;20807;-71
2023/09/04 09:24:54;;;;;;;4.05;1.77;;;21.50;99.90;;;;;;5027948;28;20035;-71
2023/09/04 09:27:22;;;;;;;5.22;2.28;;;21.50;99.90;;;;;;5036132;28;20029;-72
2023/09/04 09:29:48;;;;;;;3.33;1.95;;;21.60;99.90;;;;;;5028234;28;20107;-71
2023/09/04 09:32:19;;;;;;;3.75;1.95;;;21.60;99.90;;;;;;5029160;28;20034;-71
2023/09/04 09:34:52;;;;;;;4.63;2.15;;;21.70;99.90;;;;;;5028212;28;20105;-71
2023/09/04 09:37:20;;;;;;;3.40;1.67;;;21.80;99.90;;;;;;5024702;28;20041;-72
2023/09/04 09:39:45;;;;;;;3.83;1.70;;;21.90;99.90;;;;;;5032997;28;20072;-71
2023/09/04 09:42:11;;;;;;;3.00;1.98;;;22.00;99.90;;;;;;5027563;28;20500;-72
2023/09/04 09:44:37;;;;;;;4.47;2.15;;;22.00;99.90;;;;;;5030095;28;20501;-71
2023/09/04 09:47:05;;;;;;;3.90;2.10;;;22.00;99.90;;;;;;5031889;28;20029;-71
2023/09/04 09:49:31;;;;;;;3.15;1.80;;;22.10;99.90;;;;;;5023585;28;20034;-70
2023/09/04 09:51:56;;;;;;;5.57;2.10;;;22.20;99.90;;;;;;5034657;28;20033;-70
2023/09/04 09:54:46;;;;;;;4.78;1.63;;;22.30;99.90;;;;;;5030685;28;20041;-71
2023/09/04 09:57:17;;;;;;;5.50;2.37;;;22.50;99.90;;;;;;5028013;28;20048;-70
2023/09/04 09:59:50;;;;;;;3.15;1.30;;;22.60;99.90;;;;;;5027678;28;20064;-70
2023/09/04 10:02:23;;;;;;;3.00;1.80;;;22.70;99.90;;;;;;5025240;28;20041;-70
2023/09/04 10:04:49;;;;;;;4.47;2.35;;;22.80;99.90;;;;;;5020175;28;20033;-73
2023/09/04 10:07:26;;;;;;;4.68;1.70;;;22.90;99.90;;;;;;5026848;28;20048;-70
2023/09/04 10:09:59;;;;;;;5.50;1.73;;;23.00;99.90;;;;;;5030006;28;20115;-70
2023/09/04 10:12:50;;;;;;;3.30;1.42;;;23.00;99.90;;;;;;5027834;28;20048;-71
2023/09/04 10:15:28;;;;;;;4.70;1.48;;;23.10;99.90;;;;;;5024483;28;20381;-71
2023/09/04 10:18:14;;;;;;;4.60;1.60;;;23.30;99.90;;;;;;5027903;28;20124;-71
2023/09/04 10:20:41;;;;;;;6.88;1.98;;;23.40;99.90;;;;;;5026100;28;20029;-71
2023/09/04 10:23:11;;;;;;;4.50;2.28;;;23.50;99.90;;;;;;5034643;28;20061;-70
2023/09/04 10:25:39;;;;;;;3.42;1.73;;;23.70;99.90;;;;;;5030086;28;20037;-72
2023/09/04 10:28:15;;;;;;;2.85;1.40;;;23.70;99.90;;;;;;5027552;28;20557;-70
2023/09/04 10:30:44;;;;;;;3.53;1.65;;;23.70;99.90;;;;;;5029810;28;20041;-71
2023/09/04 10:33:12;;;;;;;7.05;1.70;;;23.70;99.90;;;;;;5029535;28;20126;-71
2023/09/04 10:35:38;;;;;;;4.88;1.55;;;23.70;99.90;;;;;;5027433;28;20044;-72
2023/09/04 10:38:05;;;;;;;3.28;1.60;;;23.80;99.90;;;;;;5028571;28;20025;-72
2023/09/04 10:40:31;;;;;;;2.92;1.00;;;23.70;99.90;;;;;;5027121;28;20033;-70
2023/09/04 10:43:03;;;;;;;2.97;1.92;;;23.70;99.90;;;;;;5024840;28;20040;-70
2023/09/04 10:45:29;;;;;;;3.13;1.40;;;23.70;99.90;;;;;;5022124;28;20039;-71
2023/09/04 10:47:55;;;;;;;2.85;1.60;;;23.80;99.90;;;;;;5025046;28;20409;-71
2023/09/04 10:50:37;;;;;;;5.82;1.67;;;23.80;99.90;;;;;;5032232;28;20535;-70
2023/09/04 10:53:06;;;;;;;2.20;1.17;;;23.80;99.90;;;;;;5024081;28;20049;-70
2023/09/04 10:55:36;;;;;;;1.88;1.00;;;23.80;99.90;;;;;;5027849;28;20030;-71
2023/09/04 10:58:04;;;;;;;2.15;0.90;;;23.80;99.90;;;;;;5024354;28;20029;-71
2023/09/04 11:00:36;;;;;;;3.10;1.40;;;23.90;99.90;;;;;;5026133;28;20029;-70
2023/09/04 11:03:19;;;;;;;2.25;1.25;;;23.80;99.90;;;;;;5023855;28;20064;-70
2023/09/04 11:06:04;;;;;;;1.77;1.35;;;23.80;99.90;;;;;;5025888;28;20028;-71
2023/09/04 11:08:32;;;;;;;2.70;1.20;;;23.80;99.90;;;;;;5028425;28;20029;-70
2023/09/04 11:11:03;;;;;;;2.97;0.95;;;23.80;99.90;;;;;;5024666;28;20119;-70
2023/09/04 11:13:29;;;;;;;2.95;1.48;;;23.80;99.90;;;;;;5022457;28;20112;-71
2023/09/04 11:15:56;;;;;;;3.83;1.25;;;23.80;99.90;;;;;;5027144;28;20049;-72
2023/09/04 11:18:27;;;;;;;5.50;1.52;;;23.80;99.90;;;;;;5026349;28;20033;-71
2023/09/04 11:20:54;;;;;;;4.13;1.55;;;23.80;99.90;;;;;;5025285;28;20048;-71
2023/09/04 11:23:23;;;;;;;3.63;1.10;;;23.90;99.90;;;;;;5027289;28;20045;-71
2023/09/04 11:25:49;;;;;;;3.47;1.58;;;23.90;99.90;;;;;;5025996;28;20036;-71
2023/09/04 11:28:17;;;;;;;5.75;1.60;;;23.80;99.90;;;;;;5029671;28;20029;-71
2023/09/04 11:30:43;;;;;;;1.98;1.02;;;23.90;99.90;;;;;;5025652;28;20037;-71
2023/09/04 11:33:12;;;;;;;2.15;1.15;;;23.90;99.90;;;;;;5026147;28;20409;-71
2023/09/04 11:35:38;;;;;;;3.45;1.20;;;23.90;99.90;;;;;;5034921;28;20484;-71
2023/09/04 11:38:29;;;;;;;2.63;1.17;;;23.90;99.90;;;;;;5030487;28;20057;-70
2023/09/04 11:40:54;;;;;;;3.83;1.30;;;23.90;99.90;;;;;;5024543;28;20056;-70
2023/09/04 11:43:23;;;;;;;4.32;2.08;;;23.80;99.90;;;;;;5026054;28;20049;-70
2023/09/04 11:45:55;;;;;;;4.18;1.20;;;23.90;99.90;;;;;;5024070;28;20041;-71
2023/09/04 11:48:26;;;;;;;3.67;1.95;;;23.90;99.90;;;;;;5025243;28;20036;-70
2023/09/04 11:50:53;;;;;;;2.28;1.15;;;23.90;99.90;;;;;;5024226;28;20703;-71
2023/09/04 11:53:20;;;;;;;2.33;1.00;;;24.00;99.90;;;;;;5026016;28;20051;-72
2023/09/04 11:55:51;;;;;;;2.35;1.20;;;24.00;99.90;;;;;;5024322;28;20037;-71
2023/09/04 11:58:17;;;;;;;3.90;1.40;;;24.00;99.90;;;;;;5026075;28;20034;-71
2023/09/04 12:00:43;;;;;;;3.53;1.80;;;24.00;99.90;;;;;;5024740;28;20104;-74
2023/09/04 12:03:08;;;;;;;5.43;1.65;;;24.00;99.90;;;;;;5029466;28;20462;-72
2023/09/04 12:05:38;;;;;;;2.10;1.30;;;24.00;99.90;;;;;;5026458;28;20052;-72
2023/09/04 12:08:04;;;;;;;3.85;1.30;;;24.00;99.90;;;;;;5025175;28;20021;-70
2023/09/04 12:10:33;;;;;;;5.18;1.70;;;23.90;99.90;;;;;;5027119;28;20053;-72
2023/09/04 12:12:59;;;;;;;4.47;1.95;;;24.00;99.90;;;;;;5026686;28;20112;-71
2023/09/04 12:15:26;;;;;;;2.60;1.42;;;24.00;99.90;;;;;;5024651;28;20140;-71
2023/09/04 12:17:51;;;;;;;2.60;1.20;;;24.00;99.90;;;;;;5025788;28;20104;-71
2023/09/04 12:20:17;;;;;;;2.58;1.45;;;24.00;99.90;;;;;;5025354;28;20155;-71
2023/09/04 12:22:53;;;;;;;3.53;1.52;;;24.00;99.90;;;;;;5026080;28;20029;-69
2023/09/04 12:25:21;;;;;;;3.10;1.20;;;24.00;99.90;;;;;;5025169;28;20025;-70
2023/09/04 12:27:48;;;;;;;2.72;1.42;;;24.00;99.90;;;;;;5028004;28;20040;-71
2023/09/04 12:30:14;;;;;;;4.13;1.27;;;23.90;99.90;;;;;;5024774;28;20674;-70
2023/09/04 12:32:39;;;;;;;2.60;1.13;;;23.90;99.90;;;;;;5027163;28;20183;-72
2023/09/04 12:35:06;;;;;;;3.00;1.40;;;24.00;99.90;;;;;;5025342;28;20076;-69
2023/09/04 12:37:33;;;;;;;2.00;1.08;;;24.10;99.90;;;;;;5023677;28;20516;-71
2023/09/04 12:39:58;;;;;;;8.55;1.63;;;24.00;99.90;;;;;;5026948;28;20929;-70
2023/09/04 12:42:24;;;;;;;2.08;1.17;;;24.10;99.90;;;;;;5030348;28;20033;-72
2023/09/04 12:44:51;;;;;;;2.53;1.05;;;24.10;99.90;;;;;;5026645;28;20091;-70
2023/09/04 12:47:16;;;;;;;1.70;1.05;;;24.10;99.90;;;;;;5027007;28;20025;-70